Impacts TAF Board
For situational awareness. Not to be used for flight planning purposes.
IDs:

KTCL - Tuscaloosa Rgnl, AL, US

Issued at 2340 UTC 23 Apr 2019
Updated at 0259 UTC 24 Apr 2019
Potential Impact None Slight Moderate High
Time<<24/15Z 24/16Z 24/17Z 24/18Z 24/19Z 24/20Z 24/21Z 24/22Z 24/23Z 25/00Z 25/01Z 25/02Z 25/03Z>>
Type PRVL PRVL PRVL PRVL PRVL PRVL PRVL PRVL PRVL
VIS >6 >6 >6 >6 >6 >6 >6 >6 >6
CIG 250 250 250 250 250 250 250 250 250
Cover OVC BKN BKN BKN BKN BKN BKN BKN BKN
FltCat VFR VFR VFR VFR VFR VFR VFR VFR VFR
WX -- -- -- -- -- -- -- -- --
WDir VRB 210 210 210 210 210 210 210 210
WSpd 0 7 7 7 7 7 7 7 7
WGst -- -- -- -- -- -- -- -- --
Raw TAF
KTCL 232340Z 2400/2424 00000KT P6SM OVC250
  FM241530 21007KT P6SM BKN250


METAR Board
Radar Display
Forecast Discussion
For situational awareness. Not to be used for flight planning purposes.